Time;durP1;ratioP1;P1;durP2;ratioP2;P2;SDS_P1;SDS_P2;PMS_P1;PMS_P2;Temp;Humidity;BMP_temperature;BMP_pressure;BME280_temperature;BME280_humidity;BME280_pressure;Samples;Min_cycle;Max_cycle;Signal;HPM_P1;HPM_P2
2024/01/02 00:00:43;;;;;;;0.60;0.40;;;2.90;99.90;;;;;;5001286;28;20520;-76
2024/01/02 00:03:09;;;;;;;1.70;0.57;;;2.80;99.90;;;;;;5006722;28;20447;-75
2024/01/02 00:05:37;;;;;;;1.43;0.50;;;2.80;99.90;;;;;;4998128;28;20471;-74
2024/01/02 00:08:04;;;;;;;2.77;0.60;;;2.80;99.90;;;;;;5005530;28;20450;-73
2024/01/02 00:10:31;;;;;;;5.20;0.80;;;2.70;99.90;;;;;;4994178;28;21154;-75
2024/01/02 00:13:01;;;;;;;1.67;0.50;;;2.80;99.90;;;;;;5006739;28;20454;-73
2024/01/02 00:15:27;;;;;;;2.13;0.40;;;2.90;99.90;;;;;;5006538;28;20583;-73
2024/01/02 00:17:54;;;;;;;2.33;0.47;;;3.00;99.90;;;;;;5022044;28;20462;-73
2024/01/02 00:20:21;;;;;;;0.50;0.40;;;3.10;99.90;;;;;;5005859;28;20455;-72
2024/01/02 00:22:48;;;;;;;5.67;1.13;;;3.10;99.90;;;;;;4995722;28;20530;-73
2024/01/02 00:25:16;;;;;;;2.97;0.40;;;3.20;99.90;;;;;;5005946;28;20462;-73
2024/01/02 00:27:43;;;;;;;0.90;0.40;;;3.20;99.90;;;;;;5008129;28;20442;-73
2024/01/02 00:30:13;;;;;;;1.47;0.40;;;3.20;99.90;;;;;;5005020;28;20496;-77
2024/01/02 00:32:40;;;;;;;1.20;0.40;;;3.20;99.90;;;;;;5004781;28;21038;-76
2024/01/02 00:35:07;;;;;;;1.73;0.40;;;3.30;99.90;;;;;;5006236;28;20594;-73
2024/01/02 00:37:34;;;;;;;1.00;0.50;;;3.30;99.90;;;;;;5005367;28;20447;-76
2024/01/02 00:40:01;;;;;;;0.83;0.40;;;3.30;99.90;;;;;;5004207;28;20517;-73
2024/01/02 00:42:28;;;;;;;4.23;0.70;;;3.40;99.90;;;;;;5014654;28;20450;-76
2024/01/02 00:44:55;;;;;;;2.57;0.50;;;3.30;99.90;;;;;;4991393;28;20955;-73
2024/01/02 00:47:23;;;;;;;2.03;0.37;;;3.30;99.90;;;;;;5008049;28;20463;-75
2024/01/02 00:49:50;;;;;;;1.10;0.40;;;3.30;99.90;;;;;;5005565;28;20528;-73
2024/01/02 00:52:17;;;;;;;1.17;0.40;;;3.30;99.90;;;;;;5005232;28;20442;-74
2024/01/02 00:54:44;;;;;;;1.30;0.40;;;3.30;99.90;;;;;;5000369;28;20510;-73
2024/01/02 00:57:11;;;;;;;1.80;0.60;;;3.30;99.90;;;;;;5004598;28;20451;-73
2024/01/02 00:59:38;;;;;;;2.10;0.40;;;3.40;99.90;;;;;;4998336;28;21049;-75
2024/01/02 01:02:05;;;;;;;0.43;0.30;;;3.30;99.90;;;;;;5005332;28;20507;-73
2024/01/02 01:04:34;;;;;;;3.27;0.50;;;3.20;99.90;;;;;;5005459;28;20475;-76
2024/01/02 01:07:01;;;;;;;1.23;0.40;;;3.10;99.90;;;;;;4990538;28;20525;-76
2024/01/02 01:09:28;;;;;;;3.03;0.40;;;3.10;99.90;;;;;;5005872;28;20447;-73
2024/01/02 01:11:56;;;;;;;1.97;0.40;;;3.10;99.90;;;;;;5005725;28;20451;-76
2024/01/02 01:14:23;;;;;;;1.67;0.47;;;3.00;99.90;;;;;;5000033;28;20468;-75
2024/01/02 01:16:50;;;;;;;1.03;0.40;;;3.00;99.90;;;;;;5013840;28;20555;-77
2024/01/02 01:19:17;;;;;;;0.60;0.40;;;2.90;99.90;;;;;;5004574;28;20466;-78
2024/01/02 01:21:45;;;;;;;1.30;0.40;;;2.90;99.90;;;;;;5005598;28;20521;-75
2024/01/02 01:24:12;;;;;;;0.50;0.30;;;2.90;99.90;;;;;;5004175;28;20459;-73
2024/01/02 01:26:39;;;;;;;2.83;0.40;;;2.90;99.90;;;;;;5012704;28;20529;-73
2024/01/02 01:29:06;;;;;;;1.70;0.40;;;3.10;99.90;;;;;;5004045;28;20511;-73
2024/01/02 01:31:32;;;;;;;0.60;0.57;;;3.00;99.90;;;;;;5005325;28;20467;-73
2024/01/02 01:33:59;;;;;;;1.83;0.30;;;3.00;99.90;;;;;;5005249;28;20986;-73
2024/01/02 01:36:26;;;;;;;3.03;0.50;;;3.10;99.90;;;;;;5004374;28;20490;-73
2024/01/02 01:38:55;;;;;;;3.00;0.40;;;3.20;99.90;;;;;;5005188;28;20447;-74
2024/01/02 01:41:22;;;;;;;4.13;0.40;;;3.30;99.90;;;;;;5003289;28;20490;-74
2024/01/02 01:43:49;;;;;;;1.33;0.40;;;3.20;99.90;;;;;;5030248;28;20503;-75
2024/01/02 01:46:17;;;;;;;2.50;0.50;;;3.20;99.90;;;;;;5003927;28;20450;-77
2024/01/02 01:48:45;;;;;;;0.50;0.30;;;3.10;99.90;;;;;;5004517;28;21027;-73
2024/01/02 01:51:13;;;;;;;2.93;0.40;;;3.10;99.90;;;;;;5004483;28;20454;-77
2024/01/02 01:53:40;;;;;;;0.90;0.30;;;3.10;99.90;;;;;;5004911;28;20467;-71
2024/01/02 01:56:09;;;;;;;0.67;0.37;;;3.10;99.90;;;;;;5004383;28;20498;-75
2024/01/02 01:58:36;;;;;;;1.07;0.33;;;3.10;99.90;;;;;;5004937;28;20833;-73
2024/01/02 02:01:03;;;;;;;0.50;0.30;;;3.10;99.90;;;;;;5004240;28;20471;-75
2024/01/02 02:03:31;;;;;;;0.60;0.30;;;3.10;99.90;;;;;;5003906;28;20537;-73
2024/01/02 02:05:58;;;;;;;1.60;0.40;;;3.00;99.90;;;;;;4997450;28;20503;-76
2024/01/02 02:08:25;;;;;;;0.63;0.30;;;2.90;99.90;;;;;;5000417;28;20443;-73
2024/01/02 02:10:53;;;;;;;0.80;0.30;;;2.90;99.90;;;;;;5004687;28;20458;-75
2024/01/02 02:13:22;;;;;;;1.30;0.33;;;2.80;99.90;;;;;;5002914;28;20538;-73
2024/01/02 02:15:49;;;;;;;0.80;0.30;;;2.70;99.90;;;;;;5003342;28;20547;-72
2024/01/02 02:18:16;;;;;;;0.60;0.30;;;2.50;99.90;;;;;;5019050;28;21220;-73
2024/01/02 02:20:43;;;;;;;0.83;0.33;;;2.40;99.90;;;;;;5004057;28;20526;-77
2024/01/02 02:23:12;;;;;;;0.60;0.40;;;2.30;99.90;;;;;;5001360;28;20563;-73
2024/01/02 02:25:39;;;;;;;0.50;0.30;;;2.30;99.90;;;;;;4998839;28;20884;-73
2024/01/02 02:28:06;;;;;;;2.20;0.50;;;2.20;99.90;;;;;;5005149;28;20450;-73
2024/01/02 02:30:33;;;;;;;0.80;0.60;;;2.20;99.90;;;;;;5001992;28;20463;-73
2024/01/02 02:33:00;;;;;;;1.57;0.50;;;2.00;99.90;;;;;;5022826;28;20563;-75
2024/01/02 02:35:27;;;;;;;2.40;0.60;;;2.00;99.90;;;;;;5003538;28;20790;-72
2024/01/02 02:37:54;;;;;;;4.10;0.90;;;1.90;99.90;;;;;;5003960;28;20471;-74
2024/01/02 02:40:23;;;;;;;1.10;0.43;;;2.10;99.90;;;;;;5004266;28;20524;-74
2024/01/02 02:42:51;;;;;;;0.60;0.37;;;2.10;99.90;;;;;;5002564;28;20445;-74
2024/01/02 02:45:18;;;;;;;3.40;0.50;;;2.10;99.90;;;;;;4990875;28;20568;-73
2024/01/02 02:47:45;;;;;;;2.87;0.50;;;2.00;99.90;;;;;;5001862;28;20462;-73
2024/01/02 02:50:12;;;;;;;1.77;0.60;;;1.90;99.90;;;;;;5002213;28;20520;-73
2024/01/02 02:52:39;;;;;;;0.80;0.40;;;1.80;99.90;;;;;;5002716;28;21009;-73
2024/01/02 02:55:08;;;;;;;3.50;0.40;;;1.80;99.90;;;;;;5002925;28;20498;-73
2024/01/02 02:57:36;;;;;;;0.77;0.43;;;1.80;99.90;;;;;;5004031;28;20490;-73
2024/01/02 03:00:04;;;;;;;3.30;0.60;;;1.80;99.90;;;;;;4993732;28;20455;-72
2024/01/02 03:02:31;;;;;;;1.57;0.40;;;1.70;99.90;;;;;;5003410;28;20942;-73
2024/01/02 03:04:58;;;;;;;0.70;0.50;;;1.70;99.90;;;;;;5002588;28;21326;-73
2024/01/02 03:07:25;;;;;;;2.90;0.60;;;1.80;99.90;;;;;;5003682;28;20508;-73
2024/01/02 03:09:52;;;;;;;0.90;0.40;;;1.70;99.90;;;;;;4998713;28;20520;-73
2024/01/02 03:12:19;;;;;;;1.17;0.60;;;1.70;99.90;;;;;;5003209;28;20510;-76
2024/01/02 03:14:48;;;;;;;1.63;0.40;;;1.80;99.90;;;;;;5003783;28;20446;-74
2024/01/02 03:17:15;;;;;;;5.47;0.50;;;1.70;99.90;;;;;;5009143;28;20593;-72
2024/01/02 03:19:42;;;;;;;0.77;0.50;;;1.60;99.90;;;;;;5002359;28;20541;-73
2024/01/02 03:22:09;;;;;;;1.03;0.70;;;1.50;99.90;;;;;;4999817;28;20538;-75
2024/01/02 03:24:36;;;;;;;3.87;0.60;;;1.50;99.90;;;;;;5002017;28;20578;-73
2024/01/02 03:27:04;;;;;;;2.03;0.90;;;1.50;99.90;;;;;;5003665;28;20478;-72
2024/01/02 03:29:31;;;;;;;1.73;0.43;;;1.40;99.90;;;;;;5002653;28;20466;-76
2024/01/02 03:31:59;;;;;;;1.17;0.60;;;1.40;99.90;;;;;;4993891;28;21208;-73
2024/01/02 03:34:26;;;;;;;1.50;0.50;;;1.50;99.90;;;;;;5006630;28;20454;-72
2024/01/02 03:36:53;;;;;;;0.90;0.60;;;1.50;99.90;;;;;;5001991;28;20547;-72
2024/01/02 03:39:20;;;;;;;1.30;0.60;;;1.40;99.90;;;;;;5000743;28;20515;-73
2024/01/02 03:41:47;;;;;;;2.50;0.53;;;1.30;99.90;;;;;;5003462;28;20504;-74
2024/01/02 03:44:13;;;;;;;1.90;0.70;;;1.30;99.90;;;;;;5008727;28;20880;-73
2024/01/02 03:46:40;;;;;;;4.50;0.47;;;1.40;99.90;;;;;;5001244;28;20519;-73
2024/01/02 03:49:09;;;;;;;2.20;0.60;;;1.30;99.90;;;;;;5002354;28;20455;-73
2024/01/02 03:51:36;;;;;;;1.17;0.50;;;1.20;99.90;;;;;;5002301;28;20541;-72
2024/01/02 03:54:04;;;;;;;1.30;0.47;;;1.10;99.90;;;;;;5002517;28;21122;-75
2024/01/02 03:56:31;;;;;;;1.53;0.60;;;1.20;99.90;;;;;;5002890;28;20487;-73
2024/01/02 03:58:58;;;;;;;0.70;0.43;;;1.20;99.90;;;;;;4997863;28;20863;-72
2024/01/02 04:01:25;;;;;;;1.37;0.50;;;1.20;99.90;;;;;;5003008;28;20443;-73
2024/01/02 04:03:52;;;;;;;1.10;0.80;;;1.20;99.90;;;;;;4996460;28;20508;-72
2024/01/02 04:06:22;;;;;;;2.10;1.03;;;1.20;99.90;;;;;;5002705;28;20481;-73
2024/01/02 04:08:49;;;;;;;1.63;0.50;;;1.10;99.90;;;;;;5003358;28;20443;-74
2024/01/02 04:11:17;;;;;;;3.40;0.70;;;1.10;99.90;;;;;;5002139;28;20490;-72
2024/01/02 04:13:44;;;;;;;0.87;0.40;;;1.00;99.90;;;;;;5002986;28;20451;-73
2024/01/02 04:16:11;;;;;;;1.73;0.70;;;1.10;99.90;;;;;;4997673;28;20989;-72
2024/01/02 04:18:38;;;;;;;0.87;0.50;;;1.10;99.90;;;;;;5016318;28;20469;-73
2024/01/02 04:21:04;;;;;;;0.80;0.47;;;1.10;99.90;;;;;;5000118;28;20455;-73
2024/01/02 04:23:32;;;;;;;1.00;0.40;;;1.20;99.90;;;;;;4999386;28;20497;-73
2024/01/02 04:25:59;;;;;;;2.70;0.67;;;1.10;99.90;;;;;;5002163;28;21067;-74
2024/01/02 04:28:26;;;;;;;2.90;0.60;;;1.20;99.90;;;;;;5001993;28;20543;-72
2024/01/02 04:30:53;;;;;;;0.63;0.40;;;1.20;99.90;;;;;;5000472;28;20548;-75
2024/01/02 04:33:20;;;;;;;0.53;0.50;;;1.20;99.90;;;;;;5001974;28;20488;-77
2024/01/02 04:35:47;;;;;;;1.57;0.40;;;1.20;99.90;;;;;;5002840;28;20525;-73
2024/01/02 04:38:14;;;;;;;2.40;1.43;;;1.20;99.90;;;;;;5000038;28;20521;-72
2024/01/02 04:40:42;;;;;;;0.50;0.40;;;1.20;99.90;;;;;;5001480;28;20455;-74
2024/01/02 04:43:09;;;;;;;0.63;0.30;;;1.20;99.90;;;;;;5003060;28;20500;-76
2024/01/02 04:45:36;;;;;;;0.90;0.47;;;1.20;99.90;;;;;;5002605;28;20549;-73
2024/01/02 04:48:04;;;;;;;1.27;0.40;;;1.20;99.90;;;;;;5005639;28;20929;-73
2024/01/02 04:50:31;;;;;;;0.93;0.40;;;1.10;99.90;;;;;;5006111;28;20536;-72
2024/01/02 04:52:58;;;;;;;3.80;0.70;;;1.20;99.90;;;;;;5002684;28;20454;-73
2024/01/02 04:55:25;;;;;;;0.60;0.50;;;1.20;99.90;;;;;;5006445;28;20447;-75
2024/01/02 04:57:53;;;;;;;1.03;0.80;;;1.10;99.90;;;;;;5005219;28;20575;-74
2024/01/02 05:00:20;;;;;;;0.53;0.33;;;1.10;99.90;;;;;;4998459;28;20888;-74
2024/01/02 05:02:47;;;;;;;0.60;0.40;;;1.10;99.90;;;;;;5005653;28;20497;-73
2024/01/02 05:05:14;;;;;;;2.13;0.50;;;1.10;99.90;;;;;;5005273;28;20480;-73
2024/01/02 05:07:41;;;;;;;1.00;0.40;;;1.10;99.90;;;;;;5004293;28;21028;-76
2024/01/02 05:10:08;;;;;;;0.90;0.43;;;1.10;99.90;;;;;;5004386;28;20454;-74
2024/01/02 05:12:36;;;;;;;1.27;0.43;;;1.20;99.90;;;;;;5005072;28;20496;-72
2024/01/02 05:15:04;;;;;;;1.90;0.60;;;1.10;99.90;;;;;;5004751;28;20504;-77
2024/01/02 05:17:31;;;;;;;1.30;0.50;;;1.20;99.90;;;;;;5028143;28;20498;-74
2024/01/02 05:19:57;;;;;;;0.50;0.40;;;1.20;99.90;;;;;;5005552;28;20511;-72
2024/01/02 05:22:24;;;;;;;0.80;0.57;;;1.20;99.90;;;;;;5000732;28;20469;-74
2024/01/02 05:24:52;;;;;;;4.57;0.57;;;1.20;99.90;;;;;;5009884;28;20446;-73
2024/01/02 05:27:20;;;;;;;0.50;0.40;;;1.20;99.90;;;;;;4992205;28;20454;-73
2024/01/02 05:29:46;;;;;;;0.80;0.50;;;1.20;99.90;;;;;;4999404;28;20474;-73
2024/01/02 05:32:15;;;;;;;0.60;0.30;;;1.20;99.90;;;;;;5004742;28;21032;-77
2024/01/02 05:34:42;;;;;;;3.40;0.67;;;1.20;99.90;;;;;;5004595;28;20450;-73
2024/01/02 05:37:09;;;;;;;0.80;0.40;;;1.20;99.90;;;;;;5004198;28;20518;-73
2024/01/02 05:39:35;;;;;;;0.50;0.40;;;1.20;99.90;;;;;;5008239;28;20516;-76
2024/01/02 05:42:02;;;;;;;0.67;0.40;;;1.30;99.90;;;;;;5005239;28;21259;-75
2024/01/02 05:44:29;;;;;;;1.50;0.50;;;1.20;99.90;;;;;;5004614;28;20470;-74
2024/01/02 05:46:56;;;;;;;1.23;0.40;;;1.20;99.90;;;;;;5052142;28;20496;-72
2024/01/02 05:49:25;;;;;;;2.73;0.60;;;1.10;99.90;;;;;;5017958;28;20454;-73
2024/01/02 05:51:52;;;;;;;1.40;0.70;;;1.10;99.90;;;;;;4997543;28;20555;-75
2024/01/02 05:54:18;;;;;;;0.83;0.47;;;1.20;99.90;;;;;;5005449;28;21032;-73
2024/01/02 05:56:45;;;;;;;2.00;0.50;;;1.10;99.90;;;;;;5003477;28;20579;-74
2024/01/02 05:59:12;;;;;;;0.90;0.40;;;1.10;99.90;;;;;;5003546;28;20466;-73
2024/01/02 06:01:39;;;;;;;2.07;0.40;;;1.10;99.90;;;;;;5004043;28;20451;-75
2024/01/02 06:04:06;;;;;;;0.73;0.40;;;1.10;99.90;;;;;;5005273;28;20516;-73
2024/01/02 06:06:34;;;;;;;1.90;0.60;;;1.10;99.90;;;;;;5004306;28;20994;-75
2024/01/02 06:09:02;;;;;;;0.80;0.50;;;1.10;99.90;;;;;;5014526;28;20454;-74
2024/01/02 06:11:32;;;;;;;2.40;0.70;;;1.10;99.90;;;;;;5007843;28;20474;-73
2024/01/02 06:13:59;;;;;;;1.80;0.60;;;1.00;99.90;;;;;;5004845;28;20443;-77
2024/01/02 06:16:26;;;;;;;1.27;0.50;;;0.90;99.90;;;;;;5005801;28;20498;-73
2024/01/02 06:18:52;;;;;;;0.60;0.50;;;0.90;99.90;;;;;;5006902;28;20443;-73
2024/01/02 06:21:19;;;;;;;4.10;0.90;;;0.90;99.90;;;;;;5001415;28;20468;-76
2024/01/02 06:23:48;;;;;;;1.93;0.80;;;1.00;99.90;;;;;;5003912;28;20450;-73
2024/01/02 06:26:15;;;;;;;2.17;0.87;;;0.80;99.90;;;;;;4992907;28;20524;-74
2024/01/02 06:28:42;;;;;;;1.60;0.70;;;0.70;99.90;;;;;;5002138;28;20546;-75
2024/01/02 06:31:09;;;;;;;1.23;0.50;;;0.60;99.90;;;;;;5003837;28;20544;-73
2024/01/02 06:33:35;;;;;;;2.50;0.60;;;0.60;99.90;;;;;;4999276;28;20507;-74
2024/01/02 06:36:03;;;;;;;2.40;0.50;;;0.60;99.90;;;;;;5004081;28;20497;-76
2024/01/02 06:38:30;;;;;;;1.10;0.87;;;0.60;99.90;;;;;;5003438;28;20486;-76
2024/01/02 06:41:00;;;;;;;0.80;0.77;;;0.60;99.90;;;;;;5004013;28;20455;-76
2024/01/02 06:43:27;;;;;;;7.83;0.80;;;0.40;99.90;;;;;;5003285;28;20474;-73
2024/01/02 06:45:53;;;;;;;1.70;0.83;;;0.30;99.90;;;;;;5011739;28;20451;-74
2024/01/02 06:48:20;;;;;;;15.53;7.40;;;0.40;99.90;;;;;;5059258;28;20511;-73
2024/01/02 06:50:48;;;;;;;14.70;7.43;;;0.50;99.90;;;;;;4995549;28;20471;-74
2024/01/02 06:53:14;;;;;;;4.00;1.83;;;0.50;99.90;;;;;;5012251;28;20450;-73
2024/01/02 06:55:42;;;;;;;7.43;3.20;;;0.40;99.90;;;;;;5014100;28;20512;-74
2024/01/02 06:58:10;;;;;;;2.50;1.83;;;0.40;99.90;;;;;;5022628;28;21179;-73
2024/01/02 07:00:37;;;;;;;1.83;1.73;;;0.30;99.90;;;;;;5014415;28;20463;-75
2024/01/02 07:03:04;;;;;;;13.57;10.37;;;0.20;99.90;;;;;;5008315;28;20442;-74
2024/01/02 07:05:31;;;;;;;7.70;5.83;;;0.30;99.90;;;;;;5015049;28;20442;-73
2024/01/02 07:07:59;;;;;;;2.23;1.40;;;0.30;99.90;;;;;;5014111;28;20458;-77
2024/01/02 07:10:26;;;;;;;1.67;1.50;;;0.40;99.90;;;;;;5013140;28;20465;-75
2024/01/02 07:12:53;;;;;;;6.03;3.33;;;0.50;99.90;;;;;;5004608;28;20471;-74
2024/01/02 07:15:21;;;;;;;2.47;2.10;;;0.60;99.90;;;;;;5053694;28;20434;-73
2024/01/02 07:17:48;;;;;;;3.70;2.10;;;0.60;99.90;;;;;;5011924;28;20530;-73
2024/01/02 07:20:15;;;;;;;2.03;1.50;;;0.70;99.90;;;;;;5027502;28;20442;-75
2024/01/02 07:22:42;;;;;;;3.57;2.33;;;0.60;99.90;;;;;;5018826;28;20478;-75
2024/01/02 07:25:10;;;;;;;1.90;1.80;;;0.60;99.90;;;;;;5025585;28;20908;-72
2024/01/02 07:27:37;;;;;;;2.83;1.63;;;0.50;99.90;;;;;;5025866;28;20521;-79
2024/01/02 07:30:05;;;;;;;2.20;2.00;;;0.50;99.90;;;;;;5028692;28;21141;-73
2024/01/02 07:32:35;;;;;;;2.77;2.47;;;0.60;99.90;;;;;;5027850;28;20522;-74
2024/01/02 07:35:02;;;;;;;2.47;2.27;;;0.70;99.90;;;;;;5020029;28;20486;-76
2024/01/02 07:37:29;;;;;;;3.40;3.00;;;0.60;99.90;;;;;;5010890;28;20486;-76
2024/01/02 07:39:56;;;;;;;1.90;1.60;;;0.60;99.90;;;;;;5014772;28;20474;-73
2024/01/02 07:42:23;;;;;;;3.03;1.57;;;0.80;99.90;;;;;;4999633;28;20912;-76
2024/01/02 07:44:50;;;;;;;3.80;2.33;;;0.90;99.90;;;;;;5047978;28;20486;-73
2024/01/02 07:47:17;;;;;;;7.10;2.73;;;0.90;99.90;;;;;;5002790;28;20507;-76
2024/01/02 07:49:45;;;;;;;2.50;2.30;;;0.90;99.90;;;;;;5002605;28;20516;-73
2024/01/02 07:52:12;;;;;;;2.30;2.07;;;1.00;99.90;;;;;;5009341;28;20466;-73
2024/01/02 07:54:39;;;;;;;2.70;1.63;;;1.00;99.90;;;;;;5002000;28;20466;-73
2024/01/02 07:57:07;;;;;;;3.20;1.77;;;1.20;99.90;;;;;;5002663;28;20572;-73
2024/01/02 07:59:34;;;;;;;4.83;2.17;;;1.20;99.90;;;;;;5002823;28;20488;-73
2024/01/02 08:02:00;;;;;;;2.47;1.87;;;1.20;99.90;;;;;;5010961;28;20836;-75
2024/01/02 08:04:29;;;;;;;2.63;2.10;;;1.30;99.90;;;;;;5010394;28;20851;-75
2024/01/02 08:06:59;;;;;;;1.53;1.33;;;1.30;99.90;;;;;;5028776;28;20466;-73
2024/01/02 08:09:26;;;;;;;5.17;1.97;;;1.30;99.90;;;;;;5033053;28;20462;-72
2024/01/02 08:11:53;;;;;;;5.10;2.50;;;1.40;99.90;;;;;;5025744;28;20529;-76
2024/01/02 08:14:20;;;;;;;3.03;2.80;;;1.30;99.90;;;;;;5037609;28;20545;-73
2024/01/02 08:16:47;;;;;;;3.40;2.17;;;1.30;99.90;;;;;;5048733;28;20462;-73
2024/01/02 08:19:15;;;;;;;3.10;2.33;;;1.20;99.90;;;;;;5020763;28;20486;-73
2024/01/02 08:21:41;;;;;;;2.13;1.50;;;1.30;99.90;;;;;;5042565;28;20509;-73
2024/01/02 08:24:10;;;;;;;15.80;13.60;;;1.40;99.90;;;;;;5031568;28;20459;-73
2024/01/02 08:26:37;;;;;;;2.83;2.40;;;1.50;99.90;;;;;;5039106;28;20468;-73
2024/01/02 08:29:04;;;;;;;2.83;2.23;;;1.60;99.90;;;;;;5068289;28;20493;-73
2024/01/02 08:31:31;;;;;;;3.27;1.63;;;1.60;99.90;;;;;;5033058;28;20462;-76
2024/01/02 08:33:58;;;;;;;4.00;3.10;;;1.50;99.90;;;;;;5063342;28;20438;-78
2024/01/02 08:36:25;;;;;;;6.87;3.50;;;1.60;99.90;;;;;;5029312;28;20462;-73
2024/01/02 08:38:52;;;;;;;5.27;2.30;;;1.80;99.90;;;;;;5052777;28;20557;-71
2024/01/02 08:41:21;;;;;;;2.23;1.60;;;1.90;99.90;;;;;;5072360;28;20466;-74
2024/01/02 08:43:48;;;;;;;18.17;11.37;;;2.00;99.90;;;;;;5005415;28;20455;-75
2024/01/02 08:46:15;;;;;;;12.50;7.07;;;2.20;99.90;;;;;;5022392;28;20511;-72
2024/01/02 08:48:42;;;;;;;3.83;2.60;;;2.30;99.90;;;;;;5024686;28;20577;-71
2024/01/02 08:51:09;;;;;;;4.20;2.17;;;2.20;99.90;;;;;;5039098;28;21883;-73
2024/01/02 08:53:36;;;;;;;7.90;2.80;;;2.10;99.90;;;;;;5087535;28;20442;-72
2024/01/02 08:56:03;;;;;;;5.40;4.17;;;2.20;99.90;;;;;;5020405;28;20859;-74
2024/01/02 08:58:31;;;;;;;8.63;3.90;;;2.50;99.90;;;;;;4994704;28;20997;-73
2024/01/02 09:00:58;;;;;;;7.80;3.43;;;2.60;99.90;;;;;;5041406;28;20990;-75
2024/01/02 09:03:27;;;;;;;4.67;2.47;;;2.60;99.90;;;;;;5094252;28;20562;-72
2024/01/02 09:05:54;;;;;;;6.03;1.53;;;2.70;99.90;;;;;;5040428;28;20542;-74
2024/01/02 09:08:21;;;;;;;1.60;1.50;;;2.70;99.90;;;;;;5078363;28;20455;-73
2024/01/02 09:10:48;;;;;;;2.07;1.43;;;2.70;99.90;;;;;;5060289;28;20438;-76
2024/01/02 09:13:15;;;;;;;7.63;2.27;;;2.90;99.90;;;;;;5097747;28;20537;-73
2024/01/02 09:15:44;;;;;;;3.27;1.20;;;3.00;99.90;;;;;;5052390;28;20515;-75
2024/01/02 09:18:11;;;;;;;1.40;1.20;;;2.80;99.90;;;;;;5061880;28;20474;-71
2024/01/02 09:20:38;;;;;;;2.43;1.70;;;2.90;99.90;;;;;;5016712;28;20490;-73
2024/01/02 09:23:05;;;;;;;2.10;0.90;;;3.10;99.90;;;;;;5030338;28;20466;-73
2024/01/02 09:25:36;;;;;;;3.47;1.43;;;3.00;99.90;;;;;;5023773;28;21072;-73
2024/01/02 09:28:07;;;;;;;8.20;5.90;;;3.20;99.90;;;;;;5045619;28;20989;-74
2024/01/02 09:30:35;;;;;;;1.53;1.03;;;3.30;99.90;;;;;;5042007;28;20701;-74
2024/01/02 09:33:09;;;;;;;62.87;42.77;;;3.40;99.90;;;;;;5049460;28;20946;-76
2024/01/02 09:35:36;;;;;;;13.70;11.77;;;3.00;99.90;;;;;;5016862;28;20473;-73
2024/01/02 09:38:04;;;;;;;12.87;11.53;;;2.60;99.90;;;;;;5041358;28;20570;-75
2024/01/02 09:40:47;;;;;;;4.00;3.00;;;2.50;99.90;;;;;;5037920;28;20454;-73
2024/01/02 09:43:22;;;;;;;5.00;3.60;;;2.40;99.90;;;;;;5023244;28;20495;-77
2024/01/02 09:46:02;;;;;;;3.87;2.17;;;2.40;99.90;;;;;;5037254;28;20450;-73
2024/01/02 09:48:42;;;;;;;1.63;1.13;;;2.50;99.90;;;;;;5010259;28;20458;-73
2024/01/02 09:51:15;;;;;;;1.50;1.40;;;2.60;99.90;;;;;;5037666;28;20461;-73
2024/01/02 09:54:05;;;;;;;1.40;1.00;;;2.50;99.90;;;;;;5026555;28;20462;-73
2024/01/02 09:56:44;;;;;;;2.40;1.33;;;2.60;99.90;;;;;;5015788;28;20451;-74
2024/01/02 09:59:24;;;;;;;2.60;1.70;;;2.80;99.90;;;;;;5015942;28;20560;-73
2024/01/02 10:02:03;;;;;;;1.17;1.07;;;2.60;99.90;;;;;;5027829;28;20442;-73
2024/01/02 10:04:47;;;;;;;2.93;1.40;;;2.70;99.90;;;;;;5010102;28;21006;-77
2024/01/02 10:07:45;;;;;;;3.23;1.27;;;2.80;99.90;;;;;;5000295;28;20495;-76
2024/01/02 10:10:22;;;;;;;4.90;1.07;;;3.00;99.90;;;;;;5026124;28;20527;-73
2024/01/02 10:13:08;;;;;;;2.30;1.00;;;3.20;99.90;;;;;;5009477;28;20470;-74
2024/01/02 10:15:42;;;;;;;5.23;3.10;;;3.50;99.90;;;;;;5009533;28;20511;-75
2024/01/02 10:18:18;;;;;;;4.17;2.40;;;3.70;99.90;;;;;;5018248;28;20614;-74
2024/01/02 10:20:52;;;;;;;4.40;2.30;;;4.00;99.90;;;;;;5007704;28;20450;-74
2024/01/02 10:23:39;;;;;;;4.00;3.10;;;4.00;99.90;;;;;;5019017;28;20533;-74
2024/01/02 10:26:08;;;;;;;5.87;2.20;;;4.20;99.90;;;;;;5011722;28;20459;-76
2024/01/02 10:28:36;;;;;;;6.63;3.13;;;4.20;99.90;;;;;;5023764;28;20458;-74
2024/01/02 10:31:07;;;;;;;2.20;2.00;;;4.00;99.90;;;;;;5081629;28;20472;-73
2024/01/02 10:33:40;;;;;;;1.63;1.00;;;4.00;99.90;;;;;;5060887;28;20471;-75
2024/01/02 10:36:12;;;;;;;3.00;1.70;;;3.80;99.90;;;;;;5033037;28;21113;-75
2024/01/02 10:38:51;;;;;;;1.73;1.60;;;4.00;99.90;;;;;;4998077;28;20518;-74
2024/01/02 10:41:45;;;;;;;1.40;1.30;;;3.90;99.90;;;;;;5002936;28;20535;-77
2024/01/02 10:44:29;;;;;;;1.67;1.27;;;3.70;99.90;;;;;;5002796;28;20525;-77
2024/01/02 10:47:01;;;;;;;2.40;1.80;;;3.60;99.90;;;;;;4999652;28;20989;-75
2024/01/02 10:49:34;;;;;;;1.37;1.07;;;3.60;99.90;;;;;;5003931;28;20451;-74
2024/01/02 10:52:11;;;;;;;2.43;2.23;;;3.50;99.90;;;;;;5006082;28;20479;-76
2024/01/02 10:54:50;;;;;;;4.10;0.90;;;3.60;99.90;;;;;;5037942;28;20945;-74
2024/01/02 10:57:24;;;;;;;3.03;1.20;;;3.60;99.90;;;;;;5036383;28;20459;-77
2024/01/02 11:00:07;;;;;;;3.70;1.90;;;3.80;99.90;;;;;;5078198;28;20518;-78
2024/01/02 11:02:47;;;;;;;1.90;1.10;;;4.00;99.90;;;;;;5035230;28;20864;-72
2024/01/02 11:05:23;;;;;;;1.47;1.37;;;4.00;99.90;;;;;;5034885;28;20450;-74
2024/01/02 11:08:06;;;;;;;3.60;1.07;;;4.00;99.90;;;;;;5034174;28;20917;-74
2024/01/02 11:10:45;;;;;;;7.73;4.93;;;3.90;99.90;;;;;;5062130;28;20495;-74
2024/01/02 11:13:14;;;;;;;12.30;7.90;;;3.90;99.90;;;;;;5058753;28;20437;-74
2024/01/02 11:15:43;;;;;;;10.20;4.50;;;4.00;99.90;;;;;;5020061;28;21048;-74
2024/01/02 11:18:12;;;;;;;2.93;2.20;;;4.20;99.90;;;;;;5034600;28;20482;-75
2024/01/02 11:20:47;;;;;;;4.50;2.97;;;4.20;99.90;;;;;;5031829;28;20458;-74
2024/01/02 11:23:18;;;;;;;18.30;10.87;;;4.30;99.90;;;;;;5036320;28;20515;-73
2024/01/02 11:25:52;;;;;;;2.20;1.37;;;4.40;99.90;;;;;;5058083;28;20450;-77
2024/01/02 11:28:22;;;;;;;16.60;9.33;;;4.50;99.90;;;;;;5038729;28;20465;-77
2024/01/02 11:30:51;;;;;;;4.20;2.77;;;4.60;99.90;;;;;;5057687;28;20445;-73
2024/01/02 11:33:24;;;;;;;2.30;1.73;;;4.60;99.90;;;;;;5028975;28;20458;-74
2024/01/02 11:36:06;;;;;;;9.03;2.60;;;4.80;99.90;;;;;;5018389;28;20451;-74
2024/01/02 11:38:43;;;;;;;2.43;1.50;;;4.90;99.90;;;;;;4997479;28;20575;-74
2024/01/02 11:41:24;;;;;;;1.80;1.20;;;4.70;99.90;;;;;;5006305;28;20485;-75
2024/01/02 11:43:58;;;;;;;2.63;1.57;;;4.60;99.90;;;;;;4995774;28;20466;-77
2024/01/02 11:46:26;;;;;;;1.30;1.10;;;4.60;99.90;;;;;;5019126;28;20446;-76
2024/01/02 11:49:07;;;;;;;1.50;0.83;;;4.70;99.90;;;;;;5003439;28;20515;-74
2024/01/02 11:51:38;;;;;;;0.80;0.80;;;4.80;99.90;;;;;;4989722;28;20902;-74
2024/01/02 11:54:24;;;;;;;3.10;1.83;;;4.80;99.90;;;;;;4997112;28;20465;-77
2024/01/02 11:56:53;;;;;;;1.80;1.70;;;4.70;99.90;;;;;;5000509;28;20516;-74
2024/01/02 11:59:28;;;;;;;3.63;2.47;;;4.70;99.90;;;;;;5006042;28;20582;-74
2024/01/02 12:02:03;;;;;;;1.37;0.87;;;4.60;99.90;;;;;;5005582;28;20499;-73
2024/01/02 12:04:43;;;;;;;2.80;2.27;;;4.50;99.90;;;;;;5007041;28;20447;-75
2024/01/02 12:07:13;;;;;;;1.10;1.00;;;4.50;99.90;;;;;;5006592;28;20511;-74
2024/01/02 12:09:46;;;;;;;1.23;1.00;;;4.60;99.90;;;;;;5017946;28;20522;-73
2024/01/02 12:12:23;;;;;;;2.23;1.13;;;4.60;99.90;;;;;;5006165;28;20926;-73
2024/01/02 12:15:05;;;;;;;1.47;0.80;;;4.40;99.90;;;;;;5003776;28;20469;-73
2024/01/02 12:17:39;;;;;;;3.40;2.67;;;4.40;99.90;;;;;;5010898;28;20535;-73
2024/01/02 12:20:10;;;;;;;4.10;2.27;;;4.30;99.90;;;;;;5004493;28;20574;-73
2024/01/02 12:22:38;;;;;;;1.23;1.00;;;4.30;99.90;;;;;;5006093;28;20462;-77
2024/01/02 12:25:07;;;;;;;2.23;1.17;;;4.20;99.90;;;;;;5005730;28;20507;-75
2024/01/02 12:27:35;;;;;;;4.30;0.90;;;4.10;99.90;;;;;;5006356;28;20490;-73
2024/01/02 12:30:05;;;;;;;2.63;1.33;;;4.20;99.90;;;;;;5005725;28;20494;-73
2024/01/02 12:32:52;;;;;;;2.27;1.30;;;4.20;99.90;;;;;;5006113;28;20530;-75
2024/01/02 12:35:27;;;;;;;1.47;1.30;;;4.10;99.90;;;;;;5001381;28;20535;-76
2024/01/02 12:38:17;;;;;;;1.10;0.90;;;4.10;99.90;;;;;;5005467;28;20470;-74
2024/01/02 12:40:48;;;;;;;1.63;1.53;;;4.10;99.90;;;;;;5001139;28;20622;-73
2024/01/02 12:43:20;;;;;;;2.50;1.90;;;4.20;99.90;;;;;;5006645;28;20593;-73
2024/01/02 12:45:52;;;;;;;2.40;2.17;;;4.20;99.90;;;;;;5005971;28;20868;-73
2024/01/02 12:48:23;;;;;;;3.97;2.97;;;4.30;99.90;;;;;;5003251;28;20462;-74
2024/01/02 12:50:54;;;;;;;8.27;3.90;;;4.30;99.90;;;;;;5006001;28;20447;-76
2024/01/02 12:53:26;;;;;;;8.33;6.00;;;4.40;99.90;;;;;;5002572;28;20462;-74
2024/01/02 12:55:58;;;;;;;2.90;2.40;;;4.50;99.90;;;;;;5005528;28;20447;-74
2024/01/02 12:58:31;;;;;;;3.77;1.87;;;4.70;99.90;;;;;;4988119;28;20468;-77
2024/01/02 13:00:58;;;;;;;4.50;2.70;;;4.80;99.90;;;;;;4999430;28;20580;-76
2024/01/02 13:03:25;;;;;;;2.03;1.67;;;4.90;99.90;;;;;;5005364;28;20536;-73
2024/01/02 13:05:53;;;;;;;1.80;1.57;;;4.90;99.90;;;;;;5004871;28;21239;-75